Airfield :
LOGIN :

Register | Disclaimer

   EN    FR    IT 

 










Legend :    VFR   Marginal VFR   IFR   Intensive IFR   Very Intensive IFR
Visi :
Ceiling :
>= 8 km
>= 3000ft
5 to 8 km
1000 to 3000 ft
1500m to 5 km
500 to 1000 ft
800 to 1500m
200 to 500 ft
< 800m
< 200 ft
Symbols :   Thunderstorms  Fog  Heavy snow  Heavy precipitations  Wind > 20 kt
SIGMETs :     Misc.  Thunderstorms  Icing  Turbulence  Mountain Waves  Volcanic Ashes







- Airport Elevation : 336 ft
- IATA code : GCI
- Download approach charts


EGJB - Guernsey

CURRENT METAR :
  • 172150Z 26020KT 9999 BKN004 11/11 Q1024

EXPIRED METARs :
  • 172120Z 26019KT 8000 -DZ FEW003 BKN005 11/11 Q1025
  • 172050Z 27020KT 9999 -DZ FEW008 BKN010 11/10 Q1025
  • 172020Z 26021KT 9999 BKN010 BKN030 11/10 Q1024

TAF TAF EGJB
Valid from the 17 at 18:00 until the 18 at 03:00 UTC


171657Z 1718/1803 26018KT 9999 -RA FEW015 BKN025
BECMG 1718/1721 8000 -RADZ BKN010
TEMPO 1720/1803 1500 RADZ BR BKN002
PROB30
TEMPO 1721/1803 0300 FG BKN000
BECMG 1802/1803 36012KT 9999 SCT015
ATIS : +44 1481 238 957
No reported NOTAMs for that airfield.



MET'MAP, your aeronautical weather chart ! - Copyright ORBIFLY December 2007 - Disclaimer

ORBIFLY MET'MAP TEAM :

Programming & Development : Alexandra Zaïnal
Concept & Development : Baudouin d'Aumeries
Co-Development & Prog : Marc-Olivier Méhu
Technical & hardware support : Manuel Goepfert

Contact : metmap@orbifly.com




SOURCES & CREDITS :

   NOAA